sensor_id;sensor_type;location;lat;lon;timestamp;P1;durP1;ratioP1;P2;durP2;ratioP2
75016;SDS011;63577;39.766;2.720;2022-11-20T00:00:27;9.30;;;2.60;;
75016;SDS011;63577;39.766;2.720;2022-11-20T00:02:53;4.50;;;1.80;;
75016;SDS011;63577;39.766;2.720;2022-11-20T00:05:18;7.40;;;2.00;;
75016;SDS011;63577;39.766;2.720;2022-11-20T00:07:44;5.90;;;2.40;;
75016;SDS011;63577;39.766;2.720;2022-11-20T00:10:09;7.10;;;2.20;;
75016;SDS011;63577;39.766;2.720;2022-11-20T00:12:35;5.20;;;1.70;;
75016;SDS011;63577;39.766;2.720;2022-11-20T00:15:00;4.60;;;2.10;;
75016;SDS011;63577;39.766;2.720;2022-11-20T00:17:26;4.20;;;1.60;;
75016;SDS011;63577;39.766;2.720;2022-11-20T00:19:51;4.00;;;1.30;;
75016;SDS011;63577;39.766;2.720;2022-11-20T00:22:16;5.30;;;1.60;;
75016;SDS011;63577;39.766;2.720;2022-11-20T00:24:41;5.10;;;1.40;;
75016;SDS011;63577;39.766;2.720;2022-11-20T00:27:07;4.50;;;1.20;;
75016;SDS011;63577;39.766;2.720;2022-11-20T00:29:32;3.20;;;1.20;;
75016;SDS011;63577;39.766;2.720;2022-11-20T00:31:57;3.50;;;1.40;;
75016;SDS011;63577;39.766;2.720;2022-11-20T00:34:23;4.50;;;1.20;;
75016;SDS011;63577;39.766;2.720;2022-11-20T00:36:48;5.40;;;1.20;;
75016;SDS011;63577;39.766;2.720;2022-11-20T00:39:13;3.50;;;1.50;;
75016;SDS011;63577;39.766;2.720;2022-11-20T00:41:39;2.90;;;1.00;;
75016;SDS011;63577;39.766;2.720;2022-11-20T00:44:04;2.50;;;0.90;;
75016;SDS011;63577;39.766;2.720;2022-11-20T00:46:29;3.80;;;1.30;;
75016;SDS011;63577;39.766;2.720;2022-11-20T00:48:55;5.70;;;1.70;;
75016;SDS011;63577;39.766;2.720;2022-11-20T00:51:21;6.90;;;1.30;;
75016;SDS011;63577;39.766;2.720;2022-11-20T00:53:47;4.60;;;1.60;;
75016;SDS011;63577;39.766;2.720;2022-11-20T00:56:13;3.60;;;1.30;;
75016;SDS011;63577;39.766;2.720;2022-11-20T00:58:40;3.50;;;1.30;;
75016;SDS011;63577;39.766;2.720;2022-11-20T01:01:07;3.00;;;1.50;;
75016;SDS011;63577;39.766;2.720;2022-11-20T01:03:34;4.30;;;2.00;;
75016;SDS011;63577;39.766;2.720;2022-11-20T01:06:00;6.10;;;2.10;;
75016;SDS011;63577;39.766;2.720;2022-11-20T01:08:29;3.60;;;1.80;;
75016;SDS011;63577;39.766;2.720;2022-11-20T01:10:58;4.60;;;1.70;;
75016;SDS011;63577;39.766;2.720;2022-11-20T01:13:23;4.70;;;1.70;;
75016;SDS011;63577;39.766;2.720;2022-11-20T01:16:14;4.50;;;1.50;;
75016;SDS011;63577;39.766;2.720;2022-11-20T01:21:07;4.20;;;1.40;;
75016;SDS011;63577;39.766;2.720;2022-11-20T01:23:33;5.80;;;1.60;;
75016;SDS011;63577;39.766;2.720;2022-11-20T01:26:00;3.70;;;1.60;;
75016;SDS011;63577;39.766;2.720;2022-11-20T01:28:26;4.10;;;1.40;;
75016;SDS011;63577;39.766;2.720;2022-11-20T01:30:51;4.10;;;1.40;;
75016;SDS011;63577;39.766;2.720;2022-11-20T01:33:17;3.20;;;1.20;;
75016;SDS011;63577;39.766;2.720;2022-11-20T01:35:42;3.10;;;1.30;;
75016;SDS011;63577;39.766;2.720;2022-11-20T01:38:07;4.50;;;1.20;;
75016;SDS011;63577;39.766;2.720;2022-11-20T01:40:33;2.90;;;1.20;;
75016;SDS011;63577;39.766;2.720;2022-11-20T01:43:04;3.80;;;1.60;;
75016;SDS011;63577;39.766;2.720;2022-11-20T01:48:12;5.60;;;1.40;;
75016;SDS011;63577;39.766;2.720;2022-11-20T01:50:38;3.00;;;1.10;;
75016;SDS011;63577;39.766;2.720;2022-11-20T01:53:06;4.60;;;1.60;;
75016;SDS011;63577;39.766;2.720;2022-11-20T01:55:33;4.60;;;1.40;;
75016;SDS011;63577;39.766;2.720;2022-11-20T01:57:59;3.40;;;1.20;;
75016;SDS011;63577;39.766;2.720;2022-11-20T02:00:25;4.10;;;0.80;;
75016;SDS011;63577;39.766;2.720;2022-11-20T02:02:55;3.80;;;1.10;;
75016;SDS011;63577;39.766;2.720;2022-11-20T02:07:47;4.40;;;1.20;;
75016;SDS011;63577;39.766;2.720;2022-11-20T02:10:13;5.10;;;1.30;;
75016;SDS011;63577;39.766;2.720;2022-11-20T02:12:39;5.70;;;1.50;;
75016;SDS011;63577;39.766;2.720;2022-11-20T02:15:23;3.30;;;1.40;;
75016;SDS011;63577;39.766;2.720;2022-11-20T02:17:48;6.30;;;2.00;;
75016;SDS011;63577;39.766;2.720;2022-11-20T02:20:13;5.50;;;1.90;;
75016;SDS011;63577;39.766;2.720;2022-11-20T02:22:42;4.40;;;2.10;;
75016;SDS011;63577;39.766;2.720;2022-11-20T02:25:12;6.40;;;2.10;;
75016;SDS011;63577;39.766;2.720;2022-11-20T02:27:38;4.60;;;1.90;;
75016;SDS011;63577;39.766;2.720;2022-11-20T02:30:04;4.40;;;1.50;;
75016;SDS011;63577;39.766;2.720;2022-11-20T02:32:34;3.70;;;1.40;;
75016;SDS011;63577;39.766;2.720;2022-11-20T02:35:09;5.10;;;1.80;;
75016;SDS011;63577;39.766;2.720;2022-11-20T02:37:37;4.10;;;1.60;;
75016;SDS011;63577;39.766;2.720;2022-11-20T02:40:03;4.60;;;1.60;;
75016;SDS011;63577;39.766;2.720;2022-11-20T02:42:29;5.10;;;1.50;;
75016;SDS011;63577;39.766;2.720;2022-11-20T02:44:54;4.10;;;1.50;;
75016;SDS011;63577;39.766;2.720;2022-11-20T02:47:19;7.70;;;1.90;;
75016;SDS011;63577;39.766;2.720;2022-11-20T02:49:44;4.30;;;1.90;;
75016;SDS011;63577;39.766;2.720;2022-11-20T02:52:10;3.50;;;1.40;;
75016;SDS011;63577;39.766;2.720;2022-11-20T02:54:35;4.10;;;1.90;;
75016;SDS011;63577;39.766;2.720;2022-11-20T02:57:00;3.10;;;1.20;;
75016;SDS011;63577;39.766;2.720;2022-11-20T02:59:26;4.20;;;1.10;;
75016;SDS011;63577;39.766;2.720;2022-11-20T03:01:51;4.40;;;1.20;;
75016;SDS011;63577;39.766;2.720;2022-11-20T03:04:16;3.50;;;1.10;;
75016;SDS011;63577;39.766;2.720;2022-11-20T03:06:42;5.20;;;1.40;;
75016;SDS011;63577;39.766;2.720;2022-11-20T03:09:07;4.90;;;1.30;;
75016;SDS011;63577;39.766;2.720;2022-11-20T03:11:32;4.40;;;1.40;;
75016;SDS011;63577;39.766;2.720;2022-11-20T03:14:01;5.80;;;1.20;;
75016;SDS011;63577;39.766;2.720;2022-11-20T03:16:26;7.10;;;1.20;;
75016;SDS011;63577;39.766;2.720;2022-11-20T03:18:52;4.20;;;1.20;;
75016;SDS011;63577;39.766;2.720;2022-11-20T03:21:18;3.80;;;1.10;;
75016;SDS011;63577;39.766;2.720;2022-11-20T03:23:43;2.80;;;1.20;;
75016;SDS011;63577;39.766;2.720;2022-11-20T03:28:34;3.80;;;1.10;;
75016;SDS011;63577;39.766;2.720;2022-11-20T03:31:04;2.90;;;1.30;;
75016;SDS011;63577;39.766;2.720;2022-11-20T03:33:30;4.10;;;1.10;;
75016;SDS011;63577;39.766;2.720;2022-11-20T03:35:55;3.70;;;0.90;;
75016;SDS011;63577;39.766;2.720;2022-11-20T03:38:25;3.70;;;1.20;;
75016;SDS011;63577;39.766;2.720;2022-11-20T03:40:57;4.60;;;1.00;;
75016;SDS011;63577;39.766;2.720;2022-11-20T03:43:22;3.20;;;1.20;;
75016;SDS011;63577;39.766;2.720;2022-11-20T03:45:48;3.60;;;1.40;;
75016;SDS011;63577;39.766;2.720;2022-11-20T03:48:13;6.00;;;1.20;;
75016;SDS011;63577;39.766;2.720;2022-11-20T03:50:38;4.70;;;1.00;;
75016;SDS011;63577;39.766;2.720;2022-11-20T03:53:04;4.20;;;1.20;;
75016;SDS011;63577;39.766;2.720;2022-11-20T03:55:29;3.70;;;1.00;;
75016;SDS011;63577;39.766;2.720;2022-11-20T03:57:54;3.70;;;1.00;;
75016;SDS011;63577;39.766;2.720;2022-11-20T04:00:20;4.10;;;1.10;;
75016;SDS011;63577;39.766;2.720;2022-11-20T04:02:45;4.00;;;1.30;;
75016;SDS011;63577;39.766;2.720;2022-11-20T04:05:11;3.70;;;1.30;;
75016;SDS011;63577;39.766;2.720;2022-11-20T04:07:36;3.10;;;1.20;;
75016;SDS011;63577;39.766;2.720;2022-11-20T04:10:02;3.50;;;1.00;;
75016;SDS011;63577;39.766;2.720;2022-11-20T04:12:27;7.20;;;1.40;;
75016;SDS011;63577;39.766;2.720;2022-11-20T04:14:56;3.40;;;1.40;;
75016;SDS011;63577;39.766;2.720;2022-11-20T04:17:21;2.80;;;1.10;;
75016;SDS011;63577;39.766;2.720;2022-11-20T04:19:46;3.60;;;1.00;;
75016;SDS011;63577;39.766;2.720;2022-11-20T04:22:12;4.00;;;1.20;;
75016;SDS011;63577;39.766;2.720;2022-11-20T04:24:37;2.90;;;1.00;;
75016;SDS011;63577;39.766;2.720;2022-11-20T04:27:03;2.70;;;0.80;;
75016;SDS011;63577;39.766;2.720;2022-11-20T04:29:28;3.40;;;1.10;;
75016;SDS011;63577;39.766;2.720;2022-11-20T04:31:53;3.00;;;1.00;;
75016;SDS011;63577;39.766;2.720;2022-11-20T04:34:19;2.70;;;1.00;;
75016;SDS011;63577;39.766;2.720;2022-11-20T04:36:44;2.90;;;0.90;;
75016;SDS011;63577;39.766;2.720;2022-11-20T04:39:14;4.80;;;1.00;;
75016;SDS011;63577;39.766;2.720;2022-11-20T04:41:40;2.60;;;0.90;;
75016;SDS011;63577;39.766;2.720;2022-11-20T04:44:05;3.20;;;1.10;;
75016;SDS011;63577;39.766;2.720;2022-11-20T04:46:32;3.60;;;1.00;;
75016;SDS011;63577;39.766;2.720;2022-11-20T04:48:58;3.70;;;1.40;;
75016;SDS011;63577;39.766;2.720;2022-11-20T04:51:24;4.30;;;1.30;;
75016;SDS011;63577;39.766;2.720;2022-11-20T04:53:49;2.80;;;1.20;;
75016;SDS011;63577;39.766;2.720;2022-11-20T04:56:15;5.20;;;1.10;;
75016;SDS011;63577;39.766;2.720;2022-11-20T04:58:40;3.20;;;1.20;;
75016;SDS011;63577;39.766;2.720;2022-11-20T05:01:10;3.70;;;1.10;;
75016;SDS011;63577;39.766;2.720;2022-11-20T05:03:35;5.30;;;1.30;;
75016;SDS011;63577;39.766;2.720;2022-11-20T05:06:01;4.80;;;1.00;;
75016;SDS011;63577;39.766;2.720;2022-11-20T05:08:27;3.70;;;1.20;;
75016;SDS011;63577;39.766;2.720;2022-11-20T05:10:53;4.20;;;1.00;;
75016;SDS011;63577;39.766;2.720;2022-11-20T05:13:18;3.60;;;1.00;;
75016;SDS011;63577;39.766;2.720;2022-11-20T05:15:43;2.90;;;1.00;;
75016;SDS011;63577;39.766;2.720;2022-11-20T05:18:09;4.00;;;1.00;;
75016;SDS011;63577;39.766;2.720;2022-11-20T05:20:34;4.60;;;1.10;;
75016;SDS011;63577;39.766;2.720;2022-11-20T05:23:01;4.50;;;1.00;;
75016;SDS011;63577;39.766;2.720;2022-11-20T05:25:26;3.00;;;0.80;;
75016;SDS011;63577;39.766;2.720;2022-11-20T05:27:52;5.40;;;0.80;;
75016;SDS011;63577;39.766;2.720;2022-11-20T05:30:18;3.40;;;0.80;;
75016;SDS011;63577;39.766;2.720;2022-11-20T05:32:43;4.20;;;0.70;;
75016;SDS011;63577;39.766;2.720;2022-11-20T05:35:08;4.30;;;0.90;;
75016;SDS011;63577;39.766;2.720;2022-11-20T05:37:34;3.20;;;0.80;;
75016;SDS011;63577;39.766;2.720;2022-11-20T05:39:59;3.60;;;1.00;;
75016;SDS011;63577;39.766;2.720;2022-11-20T05:42:24;5.00;;;1.00;;
75016;SDS011;63577;39.766;2.720;2022-11-20T05:44:56;4.50;;;0.90;;
75016;SDS011;63577;39.766;2.720;2022-11-20T05:47:21;4.10;;;1.00;;
75016;SDS011;63577;39.766;2.720;2022-11-20T05:49:47;3.70;;;0.80;;
75016;SDS011;63577;39.766;2.720;2022-11-20T05:52:12;2.90;;;1.00;;
75016;SDS011;63577;39.766;2.720;2022-11-20T05:54:37;3.00;;;1.00;;
75016;SDS011;63577;39.766;2.720;2022-11-20T05:57:03;2.90;;;0.90;;
75016;SDS011;63577;39.766;2.720;2022-11-20T05:59:28;4.50;;;1.00;;
75016;SDS011;63577;39.766;2.720;2022-11-20T06:01:54;5.20;;;1.60;;
75016;SDS011;63577;39.766;2.720;2022-11-20T06:04:19;3.90;;;1.60;;
75016;SDS011;63577;39.766;2.720;2022-11-20T06:06:44;5.20;;;2.30;;
75016;SDS011;63577;39.766;2.720;2022-11-20T06:09:10;6.20;;;2.60;;
75016;SDS011;63577;39.766;2.720;2022-11-20T06:11:35;6.20;;;2.80;;
75016;SDS011;63577;39.766;2.720;2022-11-20T06:14:00;6.80;;;2.10;;
75016;SDS011;63577;39.766;2.720;2022-11-20T06:16:26;5.70;;;1.20;;
75016;SDS011;63577;39.766;2.720;2022-11-20T06:18:51;4.80;;;1.40;;
75016;SDS011;63577;39.766;2.720;2022-11-20T06:21:17;4.20;;;1.30;;
75016;SDS011;63577;39.766;2.720;2022-11-20T06:23:43;4.80;;;1.00;;
75016;SDS011;63577;39.766;2.720;2022-11-20T06:26:10;3.20;;;1.20;;
75016;SDS011;63577;39.766;2.720;2022-11-20T06:28:36;3.00;;;1.00;;
75016;SDS011;63577;39.766;2.720;2022-11-20T06:31:02;4.30;;;0.90;;
75016;SDS011;63577;39.766;2.720;2022-11-20T06:33:28;4.30;;;1.00;;
75016;SDS011;63577;39.766;2.720;2022-11-20T06:35:55;3.80;;;1.10;;
75016;SDS011;63577;39.766;2.720;2022-11-20T06:38:21;2.30;;;0.70;;
75016;SDS011;63577;39.766;2.720;2022-11-20T06:40:46;4.10;;;0.90;;
75016;SDS011;63577;39.766;2.720;2022-11-20T06:43:11;2.70;;;0.70;;
75016;SDS011;63577;39.766;2.720;2022-11-20T06:45:37;3.10;;;1.00;;
75016;SDS011;63577;39.766;2.720;2022-11-20T06:48:03;4.10;;;0.80;;
75016;SDS011;63577;39.766;2.720;2022-11-20T06:50:28;2.50;;;0.80;;
75016;SDS011;63577;39.766;2.720;2022-11-20T06:52:54;3.10;;;0.80;;
75016;SDS011;63577;39.766;2.720;2022-11-20T06:55:19;5.10;;;1.00;;
75016;SDS011;63577;39.766;2.720;2022-11-20T06:57:45;4.40;;;0.80;;
75016;SDS011;63577;39.766;2.720;2022-11-20T07:00:10;4.80;;;1.00;;
75016;SDS011;63577;39.766;2.720;2022-11-20T07:02:39;4.60;;;1.30;;
75016;SDS011;63577;39.766;2.720;2022-11-20T07:05:04;5.70;;;1.10;;
75016;SDS011;63577;39.766;2.720;2022-11-20T07:07:30;7.10;;;1.40;;
75016;SDS011;63577;39.766;2.720;2022-11-20T07:09:55;8.60;;;1.90;;
75016;SDS011;63577;39.766;2.720;2022-11-20T07:12:21;4.90;;;1.10;;
75016;SDS011;63577;39.766;2.720;2022-11-20T07:14:46;5.90;;;1.30;;
75016;SDS011;63577;39.766;2.720;2022-11-20T07:17:12;4.10;;;1.20;;
75016;SDS011;63577;39.766;2.720;2022-11-20T07:19:37;3.80;;;0.90;;
75016;SDS011;63577;39.766;2.720;2022-11-20T07:22:03;6.20;;;1.70;;
75016;SDS011;63577;39.766;2.720;2022-11-20T07:24:28;7.50;;;1.40;;
75016;SDS011;63577;39.766;2.720;2022-11-20T07:26:53;4.00;;;1.00;;
75016;SDS011;63577;39.766;2.720;2022-11-20T07:29:19;5.50;;;1.80;;
75016;SDS011;63577;39.766;2.720;2022-11-20T07:31:44;9.20;;;2.50;;
75016;SDS011;63577;39.766;2.720;2022-11-20T07:34:09;6.10;;;2.70;;
75016;SDS011;63577;39.766;2.720;2022-11-20T07:36:35;5.90;;;2.60;;
75016;SDS011;63577;39.766;2.720;2022-11-20T07:39:00;6.30;;;2.20;;
75016;SDS011;63577;39.766;2.720;2022-11-20T07:41:26;7.00;;;2.30;;
75016;SDS011;63577;39.766;2.720;2022-11-20T07:43:52;5.60;;;2.20;;
75016;SDS011;63577;39.766;2.720;2022-11-20T07:46:17;5.30;;;2.00;;
75016;SDS011;63577;39.766;2.720;2022-11-20T07:48:43;5.50;;;1.70;;
75016;SDS011;63577;39.766;2.720;2022-11-20T07:51:08;7.30;;;2.40;;
75016;SDS011;63577;39.766;2.720;2022-11-20T07:53:33;6.20;;;2.30;;
75016;SDS011;63577;39.766;2.720;2022-11-20T07:55:59;4.60;;;2.00;;
75016;SDS011;63577;39.766;2.720;2022-11-20T07:58:25;4.10;;;1.90;;
75016;SDS011;63577;39.766;2.720;2022-11-20T08:00:51;7.20;;;3.10;;
75016;SDS011;63577;39.766;2.720;2022-11-20T08:03:16;8.00;;;3.70;;
75016;SDS011;63577;39.766;2.720;2022-11-20T08:05:42;8.80;;;3.80;;
75016;SDS011;63577;39.766;2.720;2022-11-20T08:08:07;8.20;;;4.20;;
75016;SDS011;63577;39.766;2.720;2022-11-20T08:10:33;11.50;;;4.80;;
75016;SDS011;63577;39.766;2.720;2022-11-20T08:12:58;10.40;;;4.80;;
75016;SDS011;63577;39.766;2.720;2022-11-20T08:15:47;8.60;;;4.10;;
75016;SDS011;63577;39.766;2.720;2022-11-20T08:18:12;8.80;;;4.80;;
75016;SDS011;63577;39.766;2.720;2022-11-20T08:20:37;9.20;;;4.40;;
75016;SDS011;63577;39.766;2.720;2022-11-20T08:23:04;8.60;;;3.70;;
75016;SDS011;63577;39.766;2.720;2022-11-20T08:25:31;9.30;;;3.20;;
75016;SDS011;63577;39.766;2.720;2022-11-20T08:27:57;6.10;;;2.60;;
75016;SDS011;63577;39.766;2.720;2022-11-20T08:30:22;6.60;;;2.50;;
75016;SDS011;63577;39.766;2.720;2022-11-20T08:32:48;6.40;;;2.40;;
75016;SDS011;63577;39.766;2.720;2022-11-20T08:35:13;6.50;;;1.90;;
75016;SDS011;63577;39.766;2.720;2022-11-20T08:37:38;7.60;;;3.10;;
75016;SDS011;63577;39.766;2.720;2022-11-20T08:40:08;9.70;;;4.70;;
75016;SDS011;63577;39.766;2.720;2022-11-20T08:42:34;10.10;;;4.10;;
75016;SDS011;63577;39.766;2.720;2022-11-20T08:44:59;9.40;;;4.10;;
75016;SDS011;63577;39.766;2.720;2022-11-20T08:47:24;12.80;;;4.80;;
75016;SDS011;63577;39.766;2.720;2022-11-20T08:49:50;10.10;;;5.40;;
75016;SDS011;63577;39.766;2.720;2022-11-20T08:52:15;8.80;;;3.80;;
75016;SDS011;63577;39.766;2.720;2022-11-20T08:54:40;7.00;;;3.40;;
75016;SDS011;63577;39.766;2.720;2022-11-20T08:57:06;6.50;;;3.20;;
75016;SDS011;63577;39.766;2.720;2022-11-20T08:59:31;8.60;;;3.30;;
75016;SDS011;63577;39.766;2.720;2022-11-20T09:01:56;6.80;;;3.20;;
75016;SDS011;63577;39.766;2.720;2022-11-20T09:04:22;8.50;;;3.20;;
75016;SDS011;63577;39.766;2.720;2022-11-20T09:06:47;11.10;;;4.50;;
75016;SDS011;63577;39.766;2.720;2022-11-20T09:09:16;7.00;;;3.40;;
75016;SDS011;63577;39.766;2.720;2022-11-20T09:11:41;9.00;;;4.60;;
75016;SDS011;63577;39.766;2.720;2022-11-20T09:14:07;12.20;;;6.10;;
75016;SDS011;63577;39.766;2.720;2022-11-20T09:16:32;12.50;;;5.70;;
75016;SDS011;63577;39.766;2.720;2022-11-20T09:18:57;11.50;;;5.50;;
75016;SDS011;63577;39.766;2.720;2022-11-20T09:21:23;8.00;;;3.60;;
75016;SDS011;63577;39.766;2.720;2022-11-20T09:23:49;8.80;;;3.80;;
75016;SDS011;63577;39.766;2.720;2022-11-20T09:26:15;10.00;;;3.90;;
75016;SDS011;63577;39.766;2.720;2022-11-20T09:28:40;9.40;;;3.60;;
75016;SDS011;63577;39.766;2.720;2022-11-20T09:31:06;6.90;;;2.80;;
75016;SDS011;63577;39.766;2.720;2022-11-20T09:33:32;8.60;;;2.50;;
75016;SDS011;63577;39.766;2.720;2022-11-20T09:35:57;5.70;;;1.30;;
75016;SDS011;63577;39.766;2.720;2022-11-20T09:38:22;4.60;;;1.20;;
75016;SDS011;63577;39.766;2.720;2022-11-20T09:40:57;6.80;;;1.40;;
75016;SDS011;63577;39.766;2.720;2022-11-20T09:43:32;5.00;;;1.30;;
75016;SDS011;63577;39.766;2.720;2022-11-20T09:46:05;5.80;;;2.30;;
75016;SDS011;63577;39.766;2.720;2022-11-20T09:53:57;4.70;;;1.40;;
75016;SDS011;63577;39.766;2.720;2022-11-20T09:56:26;3.70;;;1.20;;
75016;SDS011;63577;39.766;2.720;2022-11-20T09:58:57;6.90;;;1.00;;
75016;SDS011;63577;39.766;2.720;2022-11-20T10:01:26;5.20;;;1.20;;
75016;SDS011;63577;39.766;2.720;2022-11-20T10:04:02;4.80;;;1.20;;
75016;SDS011;63577;39.766;2.720;2022-11-20T10:06:31;6.40;;;1.30;;
75016;SDS011;63577;39.766;2.720;2022-11-20T10:09:08;4.00;;;1.20;;
75016;SDS011;63577;39.766;2.720;2022-11-20T10:19:33;5.10;;;1.00;;
75016;SDS011;63577;39.766;2.720;2022-11-20T10:29:53;5.00;;;1.10;;
75016;SDS011;63577;39.766;2.720;2022-11-20T10:32:25;3.50;;;0.70;;
75016;SDS011;63577;39.766;2.720;2022-11-20T10:37:25;4.50;;;1.00;;
75016;SDS011;63577;39.766;2.720;2022-11-20T10:39:53;3.60;;;1.20;;
75016;SDS011;63577;39.766;2.720;2022-11-20T10:42:38;6.60;;;1.10;;
75016;SDS011;63577;39.766;2.720;2022-11-20T10:45:25;7.80;;;4.80;;
75016;SDS011;63577;39.766;2.720;2022-11-20T10:48:04;16.40;;;9.20;;
75016;SDS011;63577;39.766;2.720;2022-11-20T10:50:33;33.40;;;18.40;;
75016;SDS011;63577;39.766;2.720;2022-11-20T10:55:45;26.30;;;12.80;;
75016;SDS011;63577;39.766;2.720;2022-11-20T11:00:43;9.00;;;4.90;;
75016;SDS011;63577;39.766;2.720;2022-11-20T11:03:28;46.70;;;32.30;;
75016;SDS011;63577;39.766;2.720;2022-11-20T11:08:21;55.40;;;26.40;;
75016;SDS011;63577;39.766;2.720;2022-11-20T11:13:21;113.60;;;48.60;;
75016;SDS011;63577;39.766;2.720;2022-11-20T11:15:47;34.90;;;15.50;;
75016;SDS011;63577;39.766;2.720;2022-11-20T11:18:22;68.70;;;28.50;;
75016;SDS011;63577;39.766;2.720;2022-11-20T11:20:49;43.80;;;18.20;;
75016;SDS011;63577;39.766;2.720;2022-11-20T11:23:24;8.60;;;2.30;;
75016;SDS011;63577;39.766;2.720;2022-11-20T11:25:56;30.60;;;19.30;;
75016;SDS011;63577;39.766;2.720;2022-11-20T11:28:36;18.10;;;8.90;;
75016;SDS011;63577;39.766;2.720;2022-11-20T11:31:03;19.60;;;6.90;;
75016;SDS011;63577;39.766;2.720;2022-11-20T11:33:29;23.30;;;10.50;;
75016;SDS011;63577;39.766;2.720;2022-11-20T11:35:55;18.80;;;8.00;;
75016;SDS011;63577;39.766;2.720;2022-11-20T11:38:40;35.00;;;15.80;;
75016;SDS011;63577;39.766;2.720;2022-11-20T11:41:06;47.70;;;23.80;;
75016;SDS011;63577;39.766;2.720;2022-11-20T11:43:33;50.60;;;20.90;;
75016;SDS011;63577;39.766;2.720;2022-11-20T11:48:59;17.00;;;5.80;;
75016;SDS011;63577;39.766;2.720;2022-11-20T11:51:30;37.60;;;15.40;;
75016;SDS011;63577;39.766;2.720;2022-11-20T11:53:58;8.70;;;3.10;;
75016;SDS011;63577;39.766;2.720;2022-11-20T11:56:33;4.50;;;1.30;;
75016;SDS011;63577;39.766;2.720;2022-11-20T11:59:00;18.80;;;7.40;;
75016;SDS011;63577;39.766;2.720;2022-11-20T12:04:19;8.90;;;2.80;;
75016;SDS011;63577;39.766;2.720;2022-11-20T12:06:47;34.80;;;14.90;;
75016;SDS011;63577;39.766;2.720;2022-11-20T12:09:13;30.90;;;12.90;;
75016;SDS011;63577;39.766;2.720;2022-11-20T12:12:12;17.70;;;8.00;;
75016;SDS011;63577;39.766;2.720;2022-11-20T12:14:34;31.10;;;13.90;;
75016;SDS011;63577;39.766;2.720;2022-11-20T12:17:01;24.50;;;12.00;;
75016;SDS011;63577;39.766;2.720;2022-11-20T12:19:28;15.20;;;8.00;;
75016;SDS011;63577;39.766;2.720;2022-11-20T12:24:42;5.10;;;2.00;;
75016;SDS011;63577;39.766;2.720;2022-11-20T12:30:12;7.60;;;3.40;;
75016;SDS011;63577;39.766;2.720;2022-11-20T12:32:55;7.00;;;4.10;;
75016;SDS011;63577;39.766;2.720;2022-11-20T12:43:30;6.50;;;2.60;;
75016;SDS011;63577;39.766;2.720;2022-11-20T12:46:35;5.20;;;1.50;;
75016;SDS011;63577;39.766;2.720;2022-11-20T12:56:38;5.90;;;1.40;;
75016;SDS011;63577;39.766;2.720;2022-11-20T13:01:51;5.90;;;1.60;;
75016;SDS011;63577;39.766;2.720;2022-11-20T13:06:46;5.40;;;1.30;;
75016;SDS011;63577;39.766;2.720;2022-11-20T13:09:14;5.70;;;2.60;;
75016;SDS011;63577;39.766;2.720;2022-11-20T13:11:44;8.10;;;4.10;;
75016;SDS011;63577;39.766;2.720;2022-11-20T13:19:31;6.90;;;1.70;;
75016;SDS011;63577;39.766;2.720;2022-11-20T13:21:56;6.30;;;2.10;;
75016;SDS011;63577;39.766;2.720;2022-11-20T13:24:23;5.40;;;1.40;;
75016;SDS011;63577;39.766;2.720;2022-11-20T13:27:05;7.30;;;2.00;;
75016;SDS011;63577;39.766;2.720;2022-11-20T13:29:31;7.40;;;3.20;;
75016;SDS011;63577;39.766;2.720;2022-11-20T13:32:06;6.80;;;1.80;;
75016;SDS011;63577;39.766;2.720;2022-11-20T13:34:37;6.60;;;2.30;;
75016;SDS011;63577;39.766;2.720;2022-11-20T13:37:02;6.60;;;2.80;;
75016;SDS011;63577;39.766;2.720;2022-11-20T13:39:32;6.60;;;2.30;;
75016;SDS011;63577;39.766;2.720;2022-11-20T13:42:43;11.40;;;5.80;;
75016;SDS011;63577;39.766;2.720;2022-11-20T13:44:48;7.00;;;2.70;;
75016;SDS011;63577;39.766;2.720;2022-11-20T13:47:25;8.30;;;3.00;;
75016;SDS011;63577;39.766;2.720;2022-11-20T13:49:51;5.90;;;2.20;;
75016;SDS011;63577;39.766;2.720;2022-11-20T13:58:09;5.20;;;1.30;;
75016;SDS011;63577;39.766;2.720;2022-11-20T14:00:18;7.70;;;3.00;;
75016;SDS011;63577;39.766;2.720;2022-11-20T14:02:50;16.50;;;5.60;;
75016;SDS011;63577;39.766;2.720;2022-11-20T14:05:22;61.90;;;18.40;;
75016;SDS011;63577;39.766;2.720;2022-11-20T14:07:48;28.30;;;7.80;;
75016;SDS011;63577;39.766;2.720;2022-11-20T14:10:24;15.90;;;4.20;;
75016;SDS011;63577;39.766;2.720;2022-11-20T14:12:50;53.70;;;18.60;;
75016;SDS011;63577;39.766;2.720;2022-11-20T14:17:50;107.00;;;36.00;;
75016;SDS011;63577;39.766;2.720;2022-11-20T14:20:16;27.40;;;9.90;;
75016;SDS011;63577;39.766;2.720;2022-11-20T14:22:50;15.00;;;4.90;;
75016;SDS011;63577;39.766;2.720;2022-11-20T14:27:42;27.30;;;12.90;;
75016;SDS011;63577;39.766;2.720;2022-11-20T14:30:12;48.10;;;23.00;;
75016;SDS011;63577;39.766;2.720;2022-11-20T14:32:39;8.10;;;3.40;;
75016;SDS011;63577;39.766;2.720;2022-11-20T14:35:08;8.20;;;3.80;;
75016;SDS011;63577;39.766;2.720;2022-11-20T14:37:36;5.80;;;3.00;;
75016;SDS011;63577;39.766;2.720;2022-11-20T14:40:02;4.50;;;1.80;;
75016;SDS011;63577;39.766;2.720;2022-11-20T14:42:29;11.90;;;7.90;;
75016;SDS011;63577;39.766;2.720;2022-11-20T14:44:56;7.30;;;4.10;;
75016;SDS011;63577;39.766;2.720;2022-11-20T14:47:23;6.50;;;4.50;;
75016;SDS011;63577;39.766;2.720;2022-11-20T14:49:50;4.40;;;1.30;;
75016;SDS011;63577;39.766;2.720;2022-11-20T14:52:19;4.80;;;2.10;;
75016;SDS011;63577;39.766;2.720;2022-11-20T14:54:46;6.20;;;2.10;;
75016;SDS011;63577;39.766;2.720;2022-11-20T14:59:49;4.80;;;2.20;;
75016;SDS011;63577;39.766;2.720;2022-11-20T15:02:15;7.20;;;4.10;;
75016;SDS011;63577;39.766;2.720;2022-11-20T15:04:44;5.00;;;1.90;;
75016;SDS011;63577;39.766;2.720;2022-11-20T15:07:10;7.10;;;2.20;;
75016;SDS011;63577;39.766;2.720;2022-11-20T15:09:35;7.90;;;5.20;;
75016;SDS011;63577;39.766;2.720;2022-11-20T15:12:01;8.70;;;4.40;;
75016;SDS011;63577;39.766;2.720;2022-11-20T15:14:27;5.90;;;2.50;;
75016;SDS011;63577;39.766;2.720;2022-11-20T15:16:54;4.20;;;1.60;;
75016;SDS011;63577;39.766;2.720;2022-11-20T15:19:23;4.70;;;1.90;;
75016;SDS011;63577;39.766;2.720;2022-11-20T15:21:49;18.20;;;11.30;;
75016;SDS011;63577;39.766;2.720;2022-11-20T15:24:15;11.90;;;5.40;;
75016;SDS011;63577;39.766;2.720;2022-11-20T15:26:40;11.60;;;6.30;;
75016;SDS011;63577;39.766;2.720;2022-11-20T15:29:13;10.90;;;3.80;;
75016;SDS011;63577;39.766;2.720;2022-11-20T15:31:39;28.50;;;15.40;;
75016;SDS011;63577;39.766;2.720;2022-11-20T15:34:18;13.60;;;6.90;;
75016;SDS011;63577;39.766;2.720;2022-11-20T15:36:44;11.20;;;4.90;;
75016;SDS011;63577;39.766;2.720;2022-11-20T15:39:09;11.00;;;4.80;;
75016;SDS011;63577;39.766;2.720;2022-11-20T15:41:36;20.80;;;8.30;;
75016;SDS011;63577;39.766;2.720;2022-11-20T15:44:02;13.80;;;4.50;;
75016;SDS011;63577;39.766;2.720;2022-11-20T15:46:29;6.80;;;2.80;;
75016;SDS011;63577;39.766;2.720;2022-11-20T15:48:55;7.50;;;3.40;;
75016;SDS011;63577;39.766;2.720;2022-11-20T15:51:27;8.00;;;2.80;;
75016;SDS011;63577;39.766;2.720;2022-11-20T15:53:54;5.60;;;2.40;;
75016;SDS011;63577;39.766;2.720;2022-11-20T15:56:19;9.90;;;4.60;;
75016;SDS011;63577;39.766;2.720;2022-11-20T15:58:45;22.00;;;11.40;;
75016;SDS011;63577;39.766;2.720;2022-11-20T16:01:14;7.80;;;3.50;;
75016;SDS011;63577;39.766;2.720;2022-11-20T16:06:06;6.50;;;2.40;;
75016;SDS011;63577;39.766;2.720;2022-11-20T16:08:31;19.60;;;11.30;;
75016;SDS011;63577;39.766;2.720;2022-11-20T16:10:56;15.30;;;8.20;;
75016;SDS011;63577;39.766;2.720;2022-11-20T16:13:22;16.80;;;8.60;;
75016;SDS011;63577;39.766;2.720;2022-11-20T16:18:43;6.20;;;2.80;;
75016;SDS011;63577;39.766;2.720;2022-11-20T16:21:11;5.90;;;2.40;;
75016;SDS011;63577;39.766;2.720;2022-11-20T16:23:38;10.90;;;5.80;;